createdAt,value
2022-10-06T00:00:41.631Z,2.83
2022-10-06T00:03:16.853Z,3.10
2022-10-06T00:05:47.362Z,2.30
2022-10-06T00:08:17.269Z,1.90
2022-10-06T00:10:50.941Z,3.80
2022-10-06T00:13:20.680Z,2.40
2022-10-06T00:15:50.207Z,2.25
2022-10-06T00:21:06.197Z,2.42
2022-10-06T00:23:40.033Z,1.27
2022-10-06T00:26:11.052Z,2.00
2022-10-06T00:28:43.857Z,1.55
2022-10-06T00:31:11.481Z,1.42
2022-10-06T00:33:41.405Z,1.92
2022-10-06T00:36:13.445Z,2.30
2022-10-06T00:38:42.333Z,1.70
2022-10-06T00:41:16.206Z,2.05
2022-10-06T00:43:51.155Z,1.48
2022-10-06T00:46:57.394Z,2.03
2022-10-06T00:49:29.083Z,1.70
2022-10-06T00:52:03.560Z,1.98
2022-10-06T00:54:33.529Z,2.42
2022-10-06T00:57:08.619Z,2.58
2022-10-06T01:02:32.282Z,2.45
2022-10-06T01:05:05.608Z,2.70
2022-10-06T01:07:38.238Z,1.95
2022-10-06T01:10:09.057Z,2.10
2022-10-06T01:12:36.802Z,1.92
2022-10-06T01:15:05.723Z,2.10
2022-10-06T01:17:42.476Z,2.95
2022-10-06T01:20:19.122Z,1.35
2022-10-06T01:22:48.472Z,1.70
2022-10-06T01:25:19.199Z,2.03
2022-10-06T01:27:53.441Z,2.63
2022-10-06T01:30:32.064Z,2.28
2022-10-06T01:32:59.594Z,2.90
2022-10-06T01:35:29.464Z,2.00
2022-10-06T01:38:05.903Z,3.42
2022-10-06T01:40:37.338Z,4.38
2022-10-06T01:45:32.196Z,1.67
2022-10-06T01:47:59.886Z,2.30
2022-10-06T01:50:28.155Z,2.83
2022-10-06T01:52:58.698Z,3.40
2022-10-06T01:55:29.151Z,2.03
2022-10-06T01:57:59.223Z,2.75
2022-10-06T02:00:29.178Z,1.80
2022-10-06T02:02:58.160Z,1.58
2022-10-06T02:05:29.683Z,2.00
2022-10-06T02:08:01.797Z,2.75
2022-10-06T02:10:30.457Z,1.80
2022-10-06T02:12:59.708Z,1.90
2022-10-06T02:15:36.379Z,1.80
2022-10-06T02:18:14.772Z,2.45
2022-10-06T02:20:42.270Z,2.80
2022-10-06T02:23:12.338Z,2.00
2022-10-06T02:25:39.889Z,2.85
2022-10-06T02:28:07.426Z,1.42
2022-10-06T02:30:37.666Z,2.70
2022-10-06T02:33:07.808Z,1.52
2022-10-06T02:35:38.557Z,1.77
2022-10-06T02:38:06.238Z,2.65
2022-10-06T02:40:38.252Z,2.60
2022-10-06T02:43:05.660Z,2.00
2022-10-06T02:45:42.804Z,2.42
2022-10-06T02:48:13.087Z,2.08
2022-10-06T02:50:40.481Z,1.88
2022-10-06T02:53:11.240Z,2.13
2022-10-06T02:55:39.589Z,2.65
2022-10-06T02:58:17.323Z,1.70
2022-10-06T03:00:45.062Z,1.98
2022-10-06T03:03:15.185Z,2.03
2022-10-06T03:05:42.634Z,2.03
2022-10-06T03:08:11.594Z,2.40
2022-10-06T03:10:41.297Z,3.53
2022-10-06T03:15:38.842Z,2.83
2022-10-06T03:18:09.497Z,2.00
2022-10-06T03:20:37.241Z,2.40
2022-10-06T03:23:09.232Z,2.53
2022-10-06T03:25:40.982Z,2.70
2022-10-06T03:28:11.844Z,2.17
2022-10-06T03:30:46.854Z,3.58
2022-10-06T03:33:14.501Z,2.95
2022-10-06T03:35:47.922Z,2.72
2022-10-06T03:38:15.439Z,2.95
2022-10-06T03:40:43.123Z,1.60
2022-10-06T03:43:11.785Z,2.10
2022-10-06T03:45:41.903Z,2.55
2022-10-06T03:48:09.399Z,2.03
2022-10-06T03:50:38.901Z,1.58
2022-10-06T03:53:06.371Z,3.95
2022-10-06T03:55:36.779Z,2.67
2022-10-06T03:58:06.196Z,2.42
2022-10-06T04:00:35.992Z,2.17
2022-10-06T04:03:03.452Z,2.28
2022-10-06T04:05:32.311Z,2.35
2022-10-06T04:07:59.783Z,2.08
2022-10-06T04:10:27.890Z,2.92
2022-10-06T04:13:05.591Z,2.33
2022-10-06T04:15:33.881Z,2.00
2022-10-06T04:18:01.328Z,3.05
2022-10-06T04:20:33.369Z,3.25
2022-10-06T04:23:00.972Z,2.78
2022-10-06T04:25:28.533Z,1.80
2022-10-06T04:28:03.216Z,2.85
2022-10-06T04:30:31.837Z,2.05
2022-10-06T04:32:59.634Z,2.10
2022-10-06T04:35:27.313Z,2.05
2022-10-06T04:37:57.118Z,2.65
2022-10-06T04:40:26.409Z,2.88
2022-10-06T04:42:59.393Z,3.58
2022-10-06T04:45:26.883Z,2.75
2022-10-06T04:47:54.327Z,1.50
2022-10-06T04:50:24.565Z,2.10
2022-10-06T04:53:06.855Z,1.80
2022-10-06T04:55:34.310Z,1.88
2022-10-06T04:58:05.905Z,2.25
2022-10-06T05:00:39.127Z,2.35
2022-10-06T05:03:06.699Z,1.48
2022-10-06T05:05:34.579Z,2.53
2022-10-06T05:08:04.931Z,1.95
2022-10-06T05:10:32.544Z,2.95
2022-10-06T05:13:00.202Z,3.05
2022-10-06T05:15:29.227Z,1.88
2022-10-06T05:17:56.928Z,1.90
2022-10-06T05:20:24.391Z,2.10
2022-10-06T05:22:53.888Z,1.90
2022-10-06T05:25:21.573Z,2.37
2022-10-06T05:27:50.457Z,2.33
2022-10-06T05:30:17.934Z,2.30
2022-10-06T05:32:50.350Z,1.75
2022-10-06T05:35:25.801Z,2.97
2022-10-06T05:37:55.077Z,2.05
2022-10-06T05:40:22.584Z,1.80
2022-10-06T05:42:52.556Z,1.55
2022-10-06T05:45:20.749Z,1.98
2022-10-06T05:47:48.727Z,2.60
2022-10-06T05:50:16.381Z,2.22
2022-10-06T05:52:43.918Z,2.10
2022-10-06T05:55:16.124Z,2.80
2022-10-06T05:57:43.736Z,1.70
2022-10-06T06:00:19.995Z,2.00
2022-10-06T06:02:50.902Z,3.47
2022-10-06T06:05:21.267Z,2.20
2022-10-06T06:07:49.417Z,2.40
2022-10-06T06:10:19.955Z,2.22
2022-10-06T06:12:49.586Z,2.10
2022-10-06T06:15:54.837Z,1.83
2022-10-06T06:18:25.206Z,2.53
2022-10-06T06:20:57.401Z,2.25
2022-10-06T06:23:27.504Z,3.67
2022-10-06T06:26:02.055Z,2.55
2022-10-06T06:28:35.228Z,2.22
2022-10-06T06:31:17.718Z,2.50
2022-10-06T06:33:53.046Z,2.55
2022-10-06T06:36:22.898Z,3.33
2022-10-06T06:38:52.049Z,2.20
2022-10-06T06:41:22.391Z,2.35
2022-10-06T06:43:54.087Z,3.15
2022-10-06T06:46:39.398Z,1.88
2022-10-06T06:49:20.120Z,3.20
2022-10-06T06:51:54.334Z,2.00
2022-10-06T06:54:24.994Z,2.83
2022-10-06T06:56:57.890Z,2.53
2022-10-06T06:59:25.667Z,2.20
2022-10-06T07:01:58.899Z,3.65
2022-10-06T07:04:28.091Z,2.88
2022-10-06T07:06:58.630Z,3.05
2022-10-06T07:09:33.095Z,2.67
2022-10-06T07:12:07.665Z,3.15
2022-10-06T07:14:57.708Z,2.22
2022-10-06T07:17:47.238Z,3.20
2022-10-06T07:20:34.991Z,2.63
2022-10-06T07:23:21.222Z,2.75
2022-10-06T07:25:48.828Z,2.65
2022-10-06T07:28:17.323Z,2.10
2022-10-06T07:30:45.294Z,2.80
2022-10-06T07:33:16.634Z,2.33
2022-10-06T07:35:45.321Z,1.60
2022-10-06T07:38:18.736Z,2.67
2022-10-06T07:41:17.770Z,2.70
2022-10-06T07:43:43.819Z,2.13
2022-10-06T07:46:13.006Z,3.75
2022-10-06T07:48:48.241Z,1.90
2022-10-06T07:51:27.276Z,2.28
2022-10-06T07:53:59.575Z,2.58
2022-10-06T07:56:40.531Z,3.75
2022-10-06T07:59:08.216Z,2.88
2022-10-06T08:01:39.636Z,2.05
2022-10-06T08:04:07.386Z,2.08
2022-10-06T08:06:35.338Z,2.00
2022-10-06T08:09:03.115Z,2.35
2022-10-06T08:11:34.443Z,2.40
2022-10-06T08:14:04.921Z,1.75
2022-10-06T08:16:38.454Z,2.90
2022-10-06T08:19:08.887Z,3.50
2022-10-06T08:21:45.033Z,2.42
2022-10-06T08:24:12.683Z,1.60
2022-10-06T08:26:44.047Z,2.05
2022-10-06T08:29:11.736Z,1.92
2022-10-06T08:31:39.517Z,2.22
2022-10-06T08:34:12.537Z,1.60
2022-10-06T08:36:44.941Z,2.55
2022-10-06T08:39:22.150Z,3.35
2022-10-06T08:41:56.136Z,1.35
2022-10-06T08:44:45.305Z,1.50
2022-10-06T08:47:15.112Z,3.28
2022-10-06T08:49:48.915Z,1.67
2022-10-06T08:52:35.041Z,1.40
2022-10-06T08:55:24.058Z,1.58
2022-10-06T08:57:53.776Z,1.17
2022-10-06T09:00:24.243Z,1.55
2022-10-06T09:02:51.971Z,1.73
2022-10-06T09:05:29.915Z,1.70
2022-10-06T09:08:16.474Z,1.83
2022-10-06T09:10:55.872Z,1.75
2022-10-06T09:13:26.886Z,1.92
2022-10-06T09:16:00.393Z,1.52
2022-10-06T09:19:07.153Z,0.95
2022-10-06T09:21:43.465Z,1.73
2022-10-06T09:24:32.025Z,1.30
2022-10-06T09:27:02.554Z,1.75
2022-10-06T09:29:31.990Z,1.52
2022-10-06T09:34:32.864Z,0.95
2022-10-06T09:37:05.032Z,1.40
2022-10-06T09:39:36.885Z,1.27
2022-10-06T09:42:14.814Z,2.00
2022-10-06T09:44:53.399Z,2.25
2022-10-06T09:47:32.047Z,1.27
2022-10-06T09:50:06.625Z,2.20
2022-10-06T09:52:34.375Z,1.70
2022-10-06T09:55:12.806Z,1.25
2022-10-06T09:57:52.687Z,1.27
2022-10-06T10:00:40.318Z,1.20
2022-10-06T10:03:21.875Z,2.00
2022-10-06T10:05:55.720Z,1.63
2022-10-06T10:08:26.091Z,1.35
2022-10-06T10:11:29.425Z,1.40
2022-10-06T10:14:06.069Z,1.77
2022-10-06T10:16:52.368Z,2.35
2022-10-06T10:19:25.461Z,1.45
2022-10-06T10:22:00.116Z,1.63
2022-10-06T10:24:47.921Z,1.63
2022-10-06T10:27:25.428Z,1.30
2022-10-06T10:30:02.766Z,1.15
2022-10-06T10:32:39.849Z,1.67
2022-10-06T10:35:19.750Z,1.17
2022-10-06T10:37:47.437Z,2.17
2022-10-06T10:40:33.953Z,1.40
2022-10-06T10:43:22.079Z,1.40
2022-10-06T10:46:12.760Z,1.15
2022-10-06T10:48:49.518Z,0.90
2022-10-06T10:51:23.863Z,1.15
2022-10-06T10:54:02.840Z,1.40
2022-10-06T10:56:36.207Z,2.35
2022-10-06T10:59:12.051Z,1.40
2022-10-06T11:01:44.550Z,1.30
2022-10-06T11:04:16.159Z,0.95
2022-10-06T11:06:53.049Z,1.42
2022-10-06T11:09:36.982Z,1.30
2022-10-06T11:12:33.600Z,1.63
2022-10-06T11:15:11.939Z,1.52
2022-10-06T11:17:50.514Z,1.55
2022-10-06T11:20:33.188Z,0.80
2022-10-06T11:23:21.967Z,1.30
2022-10-06T11:25:58.813Z,1.45
2022-10-06T11:28:32.278Z,1.30
2022-10-06T11:31:03.182Z,1.70
2022-10-06T11:33:51.555Z,1.38
2022-10-06T11:36:41.781Z,1.20
2022-10-06T11:39:37.727Z,1.77
2022-10-06T11:42:14.402Z,1.25
2022-10-06T11:44:47.277Z,1.27
2022-10-06T11:47:36.500Z,1.65
2022-10-06T11:50:24.278Z,1.10
2022-10-06T11:52:55.932Z,2.17
2022-10-06T11:55:27.266Z,1.70
2022-10-06T11:58:05.333Z,1.42
2022-10-06T12:00:42.496Z,1.70
2022-10-06T12:03:33.069Z,1.73
2022-10-06T12:06:02.790Z,0.82
2022-10-06T12:08:45.805Z,1.30
2022-10-06T12:11:45.743Z,1.40
2022-10-06T12:17:26.390Z,1.33
2022-10-06T12:19:54.014Z,1.30
2022-10-06T12:22:39.713Z,1.88
2022-10-06T12:25:17.599Z,2.08
2022-10-06T12:27:47.280Z,1.33
2022-10-06T12:30:17.918Z,1.52
2022-10-06T12:32:58.693Z,1.00
2022-10-06T12:35:41.195Z,1.63
2022-10-06T12:38:43.435Z,2.75
2022-10-06T12:41:17.198Z,1.63
2022-10-06T12:43:54.131Z,1.58
2022-10-06T12:46:25.001Z,2.47
2022-10-06T12:49:08.126Z,1.67
2022-10-06T12:51:39.105Z,1.15
2022-10-06T12:54:12.773Z,2.10
2022-10-06T12:56:44.325Z,1.30
2022-10-06T12:59:22.651Z,1.23
2022-10-06T13:01:51.372Z,1.58
2022-10-06T13:04:43.527Z,1.30
2022-10-06T13:07:18.969Z,1.83
2022-10-06T13:09:50.700Z,1.35
2022-10-06T13:12:21.170Z,1.63
2022-10-06T13:14:53.283Z,1.25
2022-10-06T13:17:22.022Z,1.38
2022-10-06T13:19:52.535Z,1.30
2022-10-06T13:22:23.507Z,1.13
2022-10-06T13:25:02.500Z,1.27
2022-10-06T13:27:33.285Z,1.20
2022-10-06T13:30:18.008Z,1.48
2022-10-06T13:32:45.668Z,0.90
2022-10-06T13:35:13.480Z,1.23
2022-10-06T13:37:41.271Z,1.60
2022-10-06T13:40:22.105Z,1.38
2022-10-06T13:43:06.297Z,1.30
2022-10-06T13:45:39.839Z,1.55
2022-10-06T13:48:19.711Z,1.90
2022-10-06T13:53:29.421Z,1.23
2022-10-06T13:56:00.418Z,1.40
2022-10-06T13:58:28.851Z,1.05
2022-10-06T14:01:00.391Z,0.88
2022-10-06T14:03:38.722Z,1.48
2022-10-06T14:06:06.204Z,0.68
2022-10-06T14:08:33.991Z,0.98
2022-10-06T14:11:06.114Z,0.88
2022-10-06T14:13:42.107Z,0.95
2022-10-06T14:16:19.459Z,1.70
2022-10-06T14:21:29.727Z,1.00
2022-10-06T14:23:57.128Z,0.88
2022-10-06T14:26:34.684Z,1.13
2022-10-06T14:29:02.962Z,0.77
2022-10-06T14:31:34.131Z,1.40
2022-10-06T14:34:01.971Z,1.02
2022-10-06T14:36:41.529Z,1.17
2022-10-06T14:39:15.891Z,0.90
2022-10-06T14:41:43.479Z,2.45
2022-10-06T14:44:15.978Z,1.77
2022-10-06T14:46:46.103Z,1.10
2022-10-06T14:49:14.147Z,1.60
2022-10-06T14:51:43.537Z,2.15
2022-10-06T14:56:43.499Z,1.45
2022-10-06T14:59:23.258Z,1.10
2022-10-06T15:01:50.951Z,1.35
2022-10-06T15:04:26.880Z,1.10
2022-10-06T15:07:13.592Z,1.17
2022-10-06T15:09:41.053Z,1.40
2022-10-06T15:12:08.488Z,1.30
2022-10-06T15:14:39.841Z,1.92
2022-10-06T15:17:10.490Z,1.45
2022-10-06T15:19:38.011Z,1.45
2022-10-06T15:22:07.130Z,1.98
2022-10-06T15:24:34.610Z,2.17
2022-10-06T15:27:25.691Z,2.25
2022-10-06T15:29:53.187Z,1.20
2022-10-06T15:32:20.613Z,2.10
2022-10-06T15:34:47.940Z,1.92
2022-10-06T15:37:15.459Z,2.63
2022-10-06T15:39:43.871Z,1.83
2022-10-06T15:42:11.195Z,1.35
2022-10-06T15:44:38.575Z,1.80
2022-10-06T15:47:08.873Z,1.95
2022-10-06T15:49:44.602Z,2.13
2022-10-06T15:52:17.366Z,3.38
2022-10-06T15:54:52.625Z,1.80
2022-10-06T15:57:21.474Z,1.38
2022-10-06T15:59:49.073Z,1.92
2022-10-06T16:02:17.540Z,1.73
2022-10-06T16:04:55.575Z,2.30
2022-10-06T16:07:25.659Z,1.40
2022-10-06T16:09:53.370Z,3.47
2022-10-06T16:12:25.221Z,1.80
2022-10-06T16:15:01.312Z,2.15
2022-10-06T16:17:28.730Z,2.95
2022-10-06T16:19:58.506Z,1.42
2022-10-06T16:22:25.952Z,1.98
2022-10-06T16:25:02.881Z,2.28
2022-10-06T16:27:37.904Z,1.50
2022-10-06T16:30:05.992Z,2.67
2022-10-06T16:32:33.395Z,13.38
2022-10-06T16:35:03.667Z,2.88
2022-10-06T16:37:31.042Z,1.98
2022-10-06T16:39:58.578Z,2.10
2022-10-06T16:42:28.039Z,1.75
2022-10-06T16:45:07.721Z,2.70
2022-10-06T16:47:37.746Z,4.78
2022-10-06T16:50:07.312Z,14.05
2022-10-06T16:52:37.057Z,5.03
2022-10-06T16:55:05.582Z,4.15
2022-10-06T16:57:33.593Z,3.75
2022-10-06T17:00:05.559Z,3.85
2022-10-06T17:02:34.326Z,3.05
2022-10-06T17:05:01.997Z,2.53
2022-10-06T17:07:33.018Z,1.60
2022-10-06T17:10:19.445Z,2.17
2022-10-06T17:12:59.264Z,3.28
2022-10-06T17:15:33.564Z,2.13
2022-10-06T17:18:01.958Z,2.05
2022-10-06T17:20:29.474Z,3.35
2022-10-06T17:22:59.420Z,2.00
2022-10-06T17:25:29.104Z,2.92
2022-10-06T17:27:59.761Z,5.43
2022-10-06T17:30:27.384Z,2.97
2022-10-06T17:32:58.309Z,3.58
2022-10-06T17:35:27.106Z,2.22
2022-10-06T17:37:54.661Z,2.42
2022-10-06T17:40:22.064Z,2.05
2022-10-06T17:42:54.916Z,4.15
2022-10-06T17:45:22.266Z,3.83
2022-10-06T17:50:57.103Z,2.33
2022-10-06T17:53:24.798Z,2.88
2022-10-06T17:55:55.284Z,2.83
2022-10-06T17:58:24.819Z,3.72
2022-10-06T18:00:55.634Z,2.45
2022-10-06T18:03:26.527Z,3.00
2022-10-06T18:05:54.938Z,3.50
2022-10-06T18:08:27.545Z,8.02
2022-10-06T18:11:13.833Z,4.03
2022-10-06T18:13:41.309Z,3.50
2022-10-06T18:16:20.399Z,4.88
2022-10-06T18:18:48.503Z,3.80
2022-10-06T18:21:20.829Z,5.30
2022-10-06T18:23:49.107Z,8.25
2022-10-06T18:26:20.179Z,10.32
2022-10-06T18:28:51.543Z,7.85
2022-10-06T18:31:20.032Z,6.47
2022-10-06T18:36:41.225Z,5.68
2022-10-06T18:39:10.596Z,4.63
2022-10-06T18:41:44.710Z,5.93
2022-10-06T18:44:13.693Z,4.60
2022-10-06T18:47:00.483Z,3.50
2022-10-06T18:49:30.634Z,3.80
2022-10-06T18:51:58.695Z,4.05
2022-10-06T18:54:38.904Z,3.63
2022-10-06T18:57:06.332Z,4.25
2022-10-06T18:59:45.743Z,4.15
2022-10-06T19:02:14.243Z,4.63
2022-10-06T19:04:46.313Z,3.72
2022-10-06T19:07:16.222Z,9.85
2022-10-06T19:09:47.171Z,7.65
2022-10-06T19:12:18.826Z,5.35
2022-10-06T19:14:48.505Z,3.83
2022-10-06T19:17:26.066Z,3.78
2022-10-06T19:19:58.361Z,3.13
2022-10-06T19:22:29.175Z,4.50
2022-10-06T19:25:14.856Z,3.05
2022-10-06T19:27:46.989Z,2.88
2022-10-06T19:30:14.960Z,3.72
2022-10-06T19:32:42.656Z,2.90
2022-10-06T19:35:13.420Z,3.67
2022-10-06T19:37:56.923Z,3.38
2022-10-06T19:40:25.055Z,5.47
2022-10-06T19:42:55.422Z,3.08
2022-10-06T19:45:27.585Z,4.03
2022-10-06T19:50:28.251Z,5.53
2022-10-06T19:53:00.141Z,4.93
2022-10-06T19:55:28.803Z,3.72
2022-10-06T19:58:01.738Z,6.53
2022-10-06T20:00:30.922Z,5.15
2022-10-06T20:02:58.484Z,3.33
2022-10-06T20:05:35.737Z,2.90
2022-10-06T20:08:11.502Z,3.22
2022-10-06T20:10:39.125Z,4.00
2022-10-06T20:13:10.048Z,4.15
2022-10-06T20:15:39.651Z,5.97
2022-10-06T20:20:36.109Z,6.00
2022-10-06T20:23:05.084Z,5.10
2022-10-06T20:25:38.181Z,10.80
2022-10-06T20:28:11.362Z,5.53
2022-10-06T20:30:39.452Z,8.02
2022-10-06T20:33:14.166Z,7.18
2022-10-06T20:35:44.180Z,6.53
2022-10-06T20:38:11.793Z,6.00
2022-10-06T20:40:52.374Z,3.83
2022-10-06T20:43:21.388Z,3.80
2022-10-06T20:45:50.288Z,4.80
2022-10-06T20:48:18.075Z,6.30
2022-10-06T20:50:45.582Z,4.78
2022-10-06T20:53:31.660Z,5.05
2022-10-06T20:56:00.421Z,5.60
2022-10-06T20:58:28.015Z,3.80
2022-10-06T21:00:55.493Z,4.45
2022-10-06T21:03:23.103Z,3.35
2022-10-06T21:05:50.977Z,2.95
2022-10-06T21:08:36.000Z,2.90
2022-10-06T21:11:03.689Z,3.92
2022-10-06T21:13:32.790Z,3.33
2022-10-06T21:16:02.867Z,4.25
2022-10-06T21:18:40.130Z,3.70
2022-10-06T21:21:11.551Z,4.50
2022-10-06T21:23:46.375Z,4.55
2022-10-06T21:26:25.042Z,4.28
2022-10-06T21:28:55.048Z,3.58
2022-10-06T21:31:23.766Z,3.80
2022-10-06T21:33:54.298Z,4.23
2022-10-06T21:36:26.107Z,4.75
2022-10-06T21:38:56.990Z,3.40
2022-10-06T21:41:39.356Z,3.45
2022-10-06T21:44:10.267Z,5.63
2022-10-06T21:46:41.584Z,3.80
2022-10-06T21:49:13.017Z,4.10
2022-10-06T21:51:42.374Z,4.10
2022-10-06T21:54:18.523Z,4.40
2022-10-06T21:56:46.220Z,5.68
2022-10-06T21:59:14.145Z,4.50
2022-10-06T22:01:43.149Z,3.40
2022-10-06T22:04:11.959Z,3.45
2022-10-06T22:06:44.922Z,4.67
2022-10-06T22:09:16.331Z,3.38
2022-10-06T22:11:44.363Z,3.78
2022-10-06T22:14:16.370Z,3.83
2022-10-06T22:16:45.366Z,3.78
2022-10-06T22:19:13.465Z,4.03
2022-10-06T22:21:52.307Z,3.75
2022-10-06T22:24:21.548Z,4.70
2022-10-06T22:26:49.774Z,4.10
2022-10-06T22:29:20.820Z,4.18
2022-10-06T22:31:48.949Z,5.47
2022-10-06T22:34:18.286Z,3.92
2022-10-06T22:36:45.866Z,5.85
2022-10-06T22:39:13.350Z,4.72
2022-10-06T22:41:42.334Z,4.78
2022-10-06T22:44:09.983Z,5.20
2022-10-06T22:46:45.252Z,5.32
2022-10-06T22:49:15.765Z,6.53
2022-10-06T22:51:44.133Z,4.68
2022-10-06T22:54:26.926Z,4.00
2022-10-06T22:56:54.735Z,4.55
2022-10-06T22:59:42.544Z,4.85
2022-10-06T23:02:25.185Z,6.13
2022-10-06T23:05:03.920Z,4.55
2022-10-06T23:07:31.726Z,4.38
2022-10-06T23:10:01.879Z,5.05
2022-10-06T23:12:29.373Z,4.82
2022-10-06T23:14:57.078Z,4.45
2022-10-06T23:17:31.335Z,5.65
2022-10-06T23:20:04.454Z,5.15
2022-10-06T23:22:31.972Z,5.13
2022-10-06T23:25:03.898Z,5.28
2022-10-06T23:27:33.698Z,5.20
2022-10-06T23:30:03.837Z,4.80
2022-10-06T23:32:31.617Z,4.57
2022-10-06T23:34:59.146Z,4.25
2022-10-06T23:37:28.040Z,5.10
2022-10-06T23:39:57.859Z,5.13
2022-10-06T23:42:28.078Z,6.55
2022-10-06T23:45:01.541Z,5.63
2022-10-06T23:47:29.108Z,5.28
2022-10-06T23:50:00.058Z,6.88
2022-10-06T23:52:27.619Z,4.55
2022-10-06T23:54:55.171Z,5.20
2022-10-06T23:57:25.778Z,4.75
